createdAt,value
2022-08-03T00:01:35.968Z,99.90
2022-08-03T00:04:03.871Z,99.90
2022-08-03T00:06:36.506Z,99.90
2022-08-03T00:09:07.018Z,99.90
2022-08-03T00:11:34.997Z,99.90
2022-08-03T00:14:03.013Z,99.90
2022-08-03T00:16:30.844Z,99.90
2022-08-03T00:18:58.746Z,99.90
2022-08-03T00:21:28.975Z,99.90
2022-08-03T00:23:56.943Z,99.90
2022-08-03T00:26:26.079Z,99.90
2022-08-03T00:28:53.904Z,99.90
2022-08-03T00:31:40.284Z,99.90
2022-08-03T00:34:09.513Z,99.90
2022-08-03T00:36:37.414Z,99.90
2022-08-03T00:39:05.310Z,99.90
2022-08-03T00:41:34.478Z,99.90
2022-08-03T00:44:02.289Z,99.90
2022-08-03T00:46:30.165Z,99.90
2022-08-03T00:48:58.153Z,99.90
2022-08-03T00:51:26.638Z,99.90
2022-08-03T00:53:54.533Z,99.90
2022-08-03T00:56:22.382Z,99.90
2022-08-03T00:58:52.714Z,99.90
2022-08-03T01:01:20.579Z,99.90
2022-08-03T01:03:48.503Z,99.90
2022-08-03T01:06:19.827Z,99.90
2022-08-03T01:08:53.526Z,99.90
2022-08-03T01:11:29.355Z,99.90
2022-08-03T01:14:18.326Z,99.90
2022-08-03T01:16:56.137Z,99.90
2022-08-03T01:19:42.553Z,99.90
2022-08-03T01:22:24.234Z,99.90
2022-08-03T01:24:58.545Z,99.90
2022-08-03T01:27:32.413Z,99.90
2022-08-03T01:30:07.588Z,99.90
2022-08-03T01:32:58.207Z,99.90
2022-08-03T01:35:39.985Z,99.90
2022-08-03T01:38:12.480Z,99.90
2022-08-03T01:40:42.270Z,99.90
2022-08-03T01:43:13.325Z,99.90
2022-08-03T01:45:44.437Z,99.90
2022-08-03T01:48:13.660Z,99.90
2022-08-03T01:50:41.888Z,99.90
2022-08-03T01:53:10.931Z,99.90
2022-08-03T01:55:40.193Z,99.90
2022-08-03T01:58:09.329Z,99.90
2022-08-03T02:00:38.445Z,99.90
2022-08-03T02:03:09.502Z,99.90
2022-08-03T02:05:38.902Z,99.90
2022-08-03T02:08:09.883Z,99.90
2022-08-03T02:10:40.642Z,99.90
2022-08-03T02:13:09.622Z,99.90
2022-08-03T02:15:39.095Z,99.90
2022-08-03T02:18:10.815Z,99.90
2022-08-03T02:20:39.943Z,99.90
2022-08-03T02:23:08.425Z,99.90
2022-08-03T02:25:42.641Z,99.90
2022-08-03T02:28:15.703Z,99.90
2022-08-03T02:30:51.899Z,99.90
2022-08-03T02:33:28.304Z,99.90
2022-08-03T02:35:57.930Z,99.90
2022-08-03T02:38:32.119Z,99.90
2022-08-03T02:41:02.098Z,99.90
2022-08-03T02:43:40.219Z,99.90
2022-08-03T02:46:23.753Z,99.90
2022-08-03T02:48:54.976Z,99.90
2022-08-03T02:51:24.846Z,99.90
2022-08-03T02:53:54.187Z,99.90
2022-08-03T02:56:23.881Z,99.90
2022-08-03T02:58:52.524Z,99.90
2022-08-03T03:01:22.919Z,99.90
2022-08-03T03:03:53.069Z,99.90
2022-08-03T03:06:21.537Z,99.90
2022-08-03T03:08:57.905Z,99.90
2022-08-03T03:11:28.233Z,99.90
2022-08-03T03:13:58.748Z,99.90
2022-08-03T03:16:27.713Z,99.90
2022-08-03T03:18:57.731Z,99.90
2022-08-03T03:21:27.269Z,99.90
2022-08-03T03:23:55.337Z,99.90
2022-08-03T03:26:23.313Z,99.90
2022-08-03T03:28:51.421Z,99.90
2022-08-03T03:31:19.305Z,99.90
2022-08-03T03:33:47.538Z,99.90
2022-08-03T03:36:18.390Z,99.90
2022-08-03T03:38:46.258Z,99.90
2022-08-03T03:41:14.348Z,99.90
2022-08-03T03:43:42.293Z,99.90
2022-08-03T03:46:13.041Z,99.90
2022-08-03T03:48:40.916Z,99.90
2022-08-03T03:51:09.149Z,99.90
2022-08-03T03:53:38.398Z,99.90
2022-08-03T03:56:06.449Z,99.90
2022-08-03T03:58:34.433Z,99.90
2022-08-03T04:01:02.649Z,99.90
2022-08-03T04:03:30.688Z,99.90
2022-08-03T04:06:16.505Z,99.90
2022-08-03T04:09:15.264Z,99.90
2022-08-03T04:11:49.839Z,99.90
2022-08-03T04:14:21.731Z,99.90
2022-08-03T04:16:54.482Z,99.90
2022-08-03T04:19:35.074Z,99.90
2022-08-03T04:22:07.105Z,99.90
2022-08-03T04:24:40.430Z,99.90
2022-08-03T04:27:11.365Z,99.90
2022-08-03T04:29:48.055Z,99.90
2022-08-03T04:32:17.486Z,99.90
2022-08-03T04:34:45.949Z,99.90
2022-08-03T04:37:19.883Z,99.90
2022-08-03T04:39:50.777Z,99.90
2022-08-03T04:42:23.430Z,99.90
2022-08-03T04:44:53.445Z,99.90
2022-08-03T04:47:23.957Z,99.90
2022-08-03T04:49:52.461Z,99.90
2022-08-03T04:52:20.494Z,99.90
2022-08-03T04:54:50.628Z,99.90
2022-08-03T04:57:23.098Z,99.90
2022-08-03T05:00:01.499Z,99.80
2022-08-03T05:02:31.325Z,99.30
2022-08-03T05:04:59.705Z,98.90
2022-08-03T05:07:35.453Z,98.70
2022-08-03T05:10:15.030Z,98.50
2022-08-03T05:12:44.788Z,98.30
2022-08-03T05:15:12.909Z,98.10
2022-08-03T05:17:40.830Z,97.90
2022-08-03T05:20:09.940Z,97.80
2022-08-03T05:22:37.767Z,97.50
2022-08-03T05:25:07.681Z,97.50
2022-08-03T05:27:36.045Z,97.30
2022-08-03T05:30:30.938Z,97.20
2022-08-03T05:32:53.336Z,96.90
2022-08-03T05:36:03.609Z,96.70
2022-08-03T05:38:09.445Z,96.70
2022-08-03T05:40:38.649Z,96.20
2022-08-03T05:43:14.824Z,96.00
2022-08-03T05:45:42.668Z,95.70
2022-08-03T05:48:10.511Z,95.60
2022-08-03T05:50:42.708Z,95.40
2022-08-03T05:53:10.827Z,95.60
2022-08-03T05:55:40.022Z,95.50
2022-08-03T05:58:07.858Z,95.50
2022-08-03T06:00:35.861Z,95.30
2022-08-03T06:03:03.692Z,95.30
2022-08-03T06:05:31.677Z,94.80
2022-08-03T06:07:59.539Z,95.80
2022-08-03T06:10:35.912Z,94.30
2022-08-03T06:13:06.891Z,95.10
2022-08-03T06:15:35.395Z,95.00
2022-08-03T06:18:03.327Z,93.90
2022-08-03T06:20:31.225Z,94.10
2022-08-03T06:23:01.174Z,93.10
2022-08-03T06:25:30.741Z,92.80
2022-08-03T06:27:59.368Z,93.30
2022-08-03T06:30:28.626Z,93.40
2022-08-03T06:32:56.487Z,93.30
2022-08-03T06:35:24.615Z,93.70
2022-08-03T06:37:52.768Z,92.40
2022-08-03T06:40:28.499Z,92.30
2022-08-03T06:42:56.661Z,91.90
2022-08-03T06:45:24.808Z,91.70
2022-08-03T06:48:04.096Z,90.80
2022-08-03T06:50:32.581Z,89.40
2022-08-03T06:53:00.744Z,90.60
2022-08-03T06:55:28.670Z,90.50
2022-08-03T06:57:59.954Z,88.80
2022-08-03T07:00:31.585Z,90.70
2022-08-03T07:02:59.428Z,88.30
2022-08-03T07:05:28.787Z,90.10
2022-08-03T07:07:59.056Z,86.20
2022-08-03T07:10:27.588Z,87.60
2022-08-03T07:12:56.922Z,88.70
2022-08-03T07:15:54.537Z,88.30
2022-08-03T07:18:12.807Z,89.40
2022-08-03T07:20:42.333Z,92.70
2022-08-03T07:23:11.978Z,91.20
2022-08-03T07:25:47.222Z,88.80
2022-08-03T07:28:15.216Z,88.00
2022-08-03T07:30:42.992Z,90.70
2022-08-03T07:33:11.010Z,92.20
2022-08-03T07:35:39.109Z,92.70
2022-08-03T07:38:08.293Z,93.40
2022-08-03T07:40:36.123Z,93.00
2022-08-03T07:43:04.928Z,93.40
2022-08-03T07:45:32.981Z,91.50
2022-08-03T07:48:01.120Z,88.50
2022-08-03T07:50:28.970Z,91.70
2022-08-03T07:52:57.834Z,92.30
2022-08-03T07:55:28.574Z,93.10
2022-08-03T07:58:07.523Z,92.80
2022-08-03T08:00:36.178Z,93.20
2022-08-03T08:03:04.079Z,92.70
2022-08-03T08:05:32.495Z,93.30
2022-08-03T08:08:00.907Z,92.30
2022-08-03T08:10:30.536Z,92.70
2022-08-03T08:12:58.734Z,93.10
2022-08-03T08:15:26.692Z,92.40
2022-08-03T08:17:56.554Z,92.60
2022-08-03T08:20:30.583Z,92.40
2022-08-03T08:23:01.625Z,93.30
2022-08-03T08:25:32.514Z,92.90
2022-08-03T08:28:22.339Z,92.60
2022-08-03T08:30:51.455Z,92.90
2022-08-03T08:33:23.031Z,92.80
2022-08-03T08:35:52.928Z,92.40
2022-08-03T08:38:20.758Z,92.90
2022-08-03T08:40:51.069Z,93.40
2022-08-03T08:43:18.874Z,92.90
2022-08-03T08:45:48.403Z,92.50
2022-08-03T08:48:19.188Z,94.20
2022-08-03T08:50:47.308Z,93.80
2022-08-03T08:53:17.619Z,94.00
2022-08-03T08:55:58.040Z,93.40
2022-08-03T08:58:30.961Z,92.60
2022-08-03T09:00:58.924Z,91.90
2022-08-03T09:03:30.362Z,92.70
2022-08-03T09:06:00.910Z,91.90
2022-08-03T09:08:29.972Z,91.40
2022-08-03T09:10:57.929Z,90.80
2022-08-03T09:13:26.185Z,92.80
2022-08-03T09:16:14.721Z,91.10
2022-08-03T09:18:43.344Z,89.80
2022-08-03T09:21:30.597Z,91.90
2022-08-03T09:24:05.809Z,92.60
2022-08-03T09:26:36.503Z,92.10
2022-08-03T09:29:11.168Z,91.10
2022-08-03T09:31:45.917Z,89.80
2022-08-03T09:34:15.524Z,88.80
2022-08-03T09:36:44.875Z,88.30
2022-08-03T09:39:14.708Z,89.50
2022-08-03T09:41:43.748Z,90.50
2022-08-03T09:44:25.212Z,90.80
2022-08-03T09:46:57.171Z,86.90
2022-08-03T09:49:25.773Z,87.50
2022-08-03T09:52:32.047Z,85.80
2022-08-03T09:54:43.013Z,90.60
2022-08-03T09:57:22.692Z,88.80
2022-08-03T09:59:53.894Z,87.60
2022-08-03T10:02:27.540Z,85.90
2022-08-03T10:04:55.629Z,87.40
2022-08-03T10:07:25.028Z,88.40
2022-08-03T10:09:58.351Z,87.10
2022-08-03T10:12:48.718Z,88.00
2022-08-03T10:16:22.944Z,89.60
2022-08-03T10:18:06.617Z,88.30
2022-08-03T10:20:38.862Z,88.30
2022-08-03T10:23:09.044Z,88.90
2022-08-03T10:25:38.991Z,89.70
2022-08-03T10:28:07.667Z,87.80
2022-08-03T10:30:37.172Z,86.90
2022-08-03T10:33:49.270Z,83.70
2022-08-03T10:35:59.069Z,86.40
2022-08-03T10:38:33.704Z,87.50
2022-08-03T10:41:03.028Z,86.20
2022-08-03T10:43:38.033Z,85.20
2022-08-03T10:46:08.937Z,86.60
2022-08-03T10:48:39.148Z,85.90
2022-08-03T10:51:07.523Z,85.60
2022-08-03T10:53:37.356Z,83.40
2022-08-03T10:56:42.797Z,81.40
2022-08-03T10:59:11.043Z,82.10
2022-08-03T11:01:59.132Z,78.20
2022-08-03T11:04:30.785Z,83.10
2022-08-03T11:07:21.512Z,79.10
2022-08-03T11:09:50.757Z,79.50
2022-08-03T11:12:30.409Z,79.10
2022-08-03T11:15:00.946Z,81.60
2022-08-03T11:17:28.882Z,84.70
2022-08-03T11:19:58.571Z,80.10
2022-08-03T11:22:28.191Z,84.10
2022-08-03T11:25:00.080Z,81.40
2022-08-03T11:27:30.940Z,80.20
2022-08-03T11:30:02.765Z,82.10
2022-08-03T11:32:52.737Z,77.40
2022-08-03T11:35:23.552Z,77.50
2022-08-03T11:38:08.737Z,76.00
2022-08-03T11:40:42.387Z,77.70
2022-08-03T11:43:11.990Z,76.50
2022-08-03T11:45:39.981Z,76.30
2022-08-03T11:48:16.644Z,68.70
2022-08-03T11:50:46.294Z,76.10
2022-08-03T11:53:19.266Z,76.30
2022-08-03T11:55:49.708Z,74.80
2022-08-03T11:59:01.554Z,79.90
2022-08-03T12:01:08.686Z,78.80
2022-08-03T12:03:37.219Z,76.00
2022-08-03T12:06:11.195Z,78.30
2022-08-03T12:08:39.068Z,74.70
2022-08-03T12:11:09.088Z,72.40
2022-08-03T12:14:44.892Z,76.70
2022-08-03T12:16:28.545Z,76.30
2022-08-03T12:18:57.897Z,72.80
2022-08-03T12:21:27.445Z,76.40
2022-08-03T12:23:59.053Z,72.60
2022-08-03T12:26:27.657Z,72.80
2022-08-03T12:28:55.470Z,74.10
2022-08-03T12:31:23.518Z,77.70
2022-08-03T12:34:03.665Z,78.30
2022-08-03T12:36:35.085Z,74.20
2022-08-03T12:39:05.570Z,79.30
2022-08-03T12:41:35.165Z,75.30
2022-08-03T12:44:04.276Z,77.00
2022-08-03T12:46:34.185Z,70.80
2022-08-03T12:49:07.873Z,72.90
2022-08-03T12:51:38.957Z,70.30
2022-08-03T12:54:07.457Z,75.80
2022-08-03T12:56:36.149Z,69.70
2022-08-03T12:59:24.957Z,69.90
2022-08-03T13:02:01.191Z,67.00
2022-08-03T13:04:34.462Z,69.20
2022-08-03T13:07:16.912Z,69.60
2022-08-03T13:09:47.545Z,68.00
2022-08-03T13:12:16.903Z,67.00
2022-08-03T13:14:46.880Z,70.10
2022-08-03T13:17:16.700Z,66.50
2022-08-03T13:19:46.149Z,68.90
2022-08-03T13:22:17.524Z,69.10
2022-08-03T13:24:47.225Z,69.30
2022-08-03T13:28:12.391Z,72.80
2022-08-03T13:30:03.996Z,66.60
2022-08-03T13:32:31.906Z,69.20
2022-08-03T13:34:59.926Z,65.50
2022-08-03T13:37:29.123Z,64.50
2022-08-03T13:39:59.662Z,68.20
2022-08-03T13:42:29.941Z,71.60
2022-08-03T13:44:57.802Z,73.50
2022-08-03T13:47:25.674Z,74.50
2022-08-03T13:49:54.862Z,71.10
2022-08-03T13:52:30.123Z,69.20
2022-08-03T13:54:58.441Z,72.40
2022-08-03T13:58:03.676Z,66.40
2022-08-03T14:00:26.643Z,69.50
2022-08-03T14:03:02.857Z,70.70
2022-08-03T14:05:32.573Z,71.00
2022-08-03T14:08:04.903Z,68.90
2022-08-03T14:10:34.102Z,67.80
2022-08-03T14:13:01.965Z,69.60
2022-08-03T14:15:29.860Z,69.40
2022-08-03T14:17:58.812Z,69.20
2022-08-03T14:20:38.809Z,67.70
2022-08-03T14:23:16.559Z,70.70
2022-08-03T14:25:51.843Z,70.40
2022-08-03T14:28:22.237Z,69.70
2022-08-03T14:30:50.371Z,71.80
2022-08-03T14:33:18.166Z,67.60
2022-08-03T14:35:46.022Z,70.30
2022-08-03T14:38:13.886Z,69.20
2022-08-03T14:40:43.521Z,66.10
2022-08-03T14:43:11.727Z,69.50
2022-08-03T14:45:39.672Z,66.70
2022-08-03T14:50:30.174Z,65.30
2022-08-03T14:50:56.557Z,66.80
2022-08-03T14:53:24.937Z,65.90
2022-08-03T14:55:54.071Z,67.40
2022-08-03T14:58:23.099Z,67.70
2022-08-03T15:00:52.408Z,68.00
2022-08-03T15:03:24.403Z,67.90
2022-08-03T15:05:53.099Z,68.60
2022-08-03T15:08:21.093Z,71.00
2022-08-03T15:10:49.469Z,70.50
2022-08-03T15:13:19.509Z,68.60
2022-08-03T15:15:47.806Z,67.00
2022-08-03T15:18:15.934Z,66.40
2022-08-03T15:20:46.599Z,69.30
2022-08-03T15:23:16.527Z,70.20
2022-08-03T15:26:03.894Z,68.80
2022-08-03T15:28:34.790Z,66.70
2022-08-03T15:31:05.763Z,66.00
2022-08-03T15:33:33.661Z,65.70
2022-08-03T15:36:03.749Z,67.70
2022-08-03T15:38:31.639Z,66.40
2022-08-03T15:40:59.536Z,75.70
2022-08-03T15:43:27.398Z,68.00
2022-08-03T15:46:28.172Z,65.20
2022-08-03T15:48:47.534Z,67.30
2022-08-03T15:51:15.442Z,66.70
2022-08-03T15:53:43.301Z,68.60
2022-08-03T15:56:15.510Z,66.60
2022-08-03T15:59:10.003Z,66.50
2022-08-03T16:01:35.905Z,66.30
2022-08-03T16:04:04.485Z,65.10
2022-08-03T16:06:35.838Z,65.00
2022-08-03T16:09:24.105Z,66.60
2022-08-03T16:11:54.159Z,67.50
2022-08-03T16:14:32.412Z,67.40
2022-08-03T16:17:05.117Z,73.80
2022-08-03T16:19:32.966Z,65.50
2022-08-03T16:22:01.332Z,65.00
2022-08-03T16:24:29.271Z,65.70
2022-08-03T16:26:57.297Z,67.30
2022-08-03T16:29:25.137Z,71.30
2022-08-03T16:31:53.063Z,70.70
2022-08-03T16:34:22.306Z,69.70
2022-08-03T16:36:50.169Z,67.40
2022-08-03T16:39:18.001Z,68.60
2022-08-03T16:41:53.899Z,68.60
2022-08-03T16:44:29.874Z,68.80
2022-08-03T16:46:57.893Z,68.80
2022-08-03T16:49:54.298Z,67.40
2022-08-03T16:52:16.619Z,66.80
2022-08-03T16:54:53.106Z,69.00
2022-08-03T16:57:55.964Z,67.30
2022-08-03T17:00:34.208Z,68.60
2022-08-03T17:03:04.053Z,66.40
2022-08-03T17:05:47.038Z,67.00
2022-08-03T17:08:15.920Z,67.00
2022-08-03T17:10:45.459Z,67.10
2022-08-03T17:13:21.453Z,67.00
2022-08-03T17:16:00.962Z,67.60
2022-08-03T17:18:35.076Z,68.50
2022-08-03T17:21:06.024Z,67.60
2022-08-03T17:23:47.644Z,69.70
2022-08-03T17:26:21.682Z,68.90
2022-08-03T17:28:57.834Z,67.70
2022-08-03T17:31:31.546Z,67.60
2022-08-03T17:34:02.016Z,66.70
2022-08-03T17:37:02.214Z,68.40
2022-08-03T17:39:41.895Z,68.70
2022-08-03T17:42:29.109Z,68.50
2022-08-03T17:45:02.414Z,68.30
2022-08-03T17:47:42.736Z,68.20
2022-08-03T17:50:24.127Z,67.90
2022-08-03T17:53:07.793Z,68.40
2022-08-03T17:55:55.587Z,67.80
2022-08-03T17:58:39.614Z,67.70
2022-08-03T18:02:00.076Z,67.30
2022-08-03T18:04:30.124Z,70.60
2022-08-03T18:07:11.635Z,69.00
2022-08-03T18:12:37.038Z,69.40
2022-08-03T18:15:07.701Z,70.00
2022-08-03T18:17:54.942Z,70.70
2022-08-03T18:20:34.584Z,70.80
2022-08-03T18:23:11.126Z,72.00
2022-08-03T18:25:58.207Z,72.20
2022-08-03T18:28:28.035Z,70.90
2022-08-03T18:30:56.944Z,76.00
2022-08-03T18:34:18.665Z,76.30
2022-08-03T18:36:21.846Z,74.00
2022-08-03T18:38:58.704Z,74.70
2022-08-03T18:41:33.303Z,75.20
2022-08-03T18:44:08.449Z,76.40
2022-08-03T18:46:48.365Z,78.50
2022-08-03T18:49:25.614Z,76.80
2022-08-03T18:52:03.788Z,78.10
2022-08-03T18:54:51.740Z,79.10
2022-08-03T18:57:38.115Z,81.80
2022-08-03T19:00:12.451Z,81.80
2022-08-03T19:02:48.614Z,82.70
2022-08-03T19:05:19.751Z,82.60
2022-08-03T19:07:58.226Z,82.90
2022-08-03T19:10:32.123Z,83.20
2022-08-03T19:13:11.375Z,83.40
2022-08-03T19:15:51.502Z,83.80
2022-08-03T19:18:21.275Z,84.10
2022-08-03T19:20:53.287Z,84.40
2022-08-03T19:23:25.479Z,84.70
2022-08-03T19:25:53.856Z,84.90
2022-08-03T19:28:30.105Z,85.20
2022-08-03T19:31:02.565Z,85.30
2022-08-03T19:33:57.533Z,85.70
2022-08-03T19:36:25.636Z,86.00
2022-08-03T19:38:55.957Z,86.30
2022-08-03T19:41:26.356Z,86.40
2022-08-03T19:44:04.508Z,86.60
2022-08-03T19:46:35.043Z,86.60
2022-08-03T19:49:15.999Z,85.90
2022-08-03T19:51:59.014Z,86.80
2022-08-03T19:54:36.572Z,82.50
2022-08-03T19:57:18.899Z,86.50
2022-08-03T19:59:50.110Z,83.20
2022-08-03T20:02:26.637Z,86.40
2022-08-03T20:04:56.808Z,87.70
2022-08-03T20:07:25.692Z,83.00
2022-08-03T20:09:56.210Z,87.20
2022-08-03T20:12:28.137Z,85.00
2022-08-03T20:14:58.743Z,85.90
2022-08-03T20:17:54.362Z,84.50
2022-08-03T20:20:19.285Z,86.40
2022-08-03T20:22:57.455Z,85.10
2022-08-03T20:25:38.455Z,84.60
2022-08-03T20:28:14.120Z,84.20
2022-08-03T20:30:46.420Z,86.30
2022-08-03T20:36:04.962Z,87.90
2022-08-03T20:38:32.913Z,85.30
2022-08-03T20:41:11.777Z,86.10
2022-08-03T20:43:41.775Z,84.80
2022-08-03T20:46:29.554Z,88.10
2022-08-03T20:48:59.678Z,87.80
2022-08-03T20:51:49.762Z,87.00
2022-08-03T20:54:28.573Z,89.70
2022-08-03T20:56:58.464Z,88.30
2022-08-03T20:59:34.817Z,90.00
2022-08-03T21:02:19.962Z,89.90
2022-08-03T21:04:58.632Z,90.00
2022-08-03T21:08:04.047Z,90.00
2022-08-03T21:10:17.853Z,90.10
2022-08-03T21:12:51.659Z,90.20
2022-08-03T21:13:03.914Z,68.70
2022-08-03T21:13:13.134Z,86.40
2022-08-03T21:16:06.996Z,90.30
2022-08-03T21:18:14.779Z,90.40
2022-08-03T21:20:45.865Z,90.50
2022-08-03T21:23:35.107Z,90.30
2022-08-03T21:26:03.989Z,90.70
2022-08-03T21:28:31.988Z,90.60
2022-08-03T21:31:00.206Z,90.60
2022-08-03T21:33:30.677Z,90.70
2022-08-03T21:35:59.187Z,90.10
2022-08-03T21:38:30.140Z,90.50
2022-08-03T21:40:58.531Z,89.60
2022-08-03T21:43:26.454Z,90.10
2022-08-03T21:45:59.300Z,90.30
2022-08-03T21:48:32.521Z,91.00
2022-08-03T21:51:01.003Z,91.00
2022-08-03T21:54:02.491Z,91.10
2022-08-03T21:56:22.378Z,91.00
2022-08-03T21:58:54.313Z,91.10
2022-08-03T22:01:25.095Z,91.10
2022-08-03T22:03:56.316Z,91.10
2022-08-03T22:06:27.735Z,91.20
2022-08-03T22:08:55.715Z,91.20
2022-08-03T22:11:23.525Z,91.30
2022-08-03T22:13:51.616Z,91.30
2022-08-03T22:16:20.536Z,91.40
2022-08-03T22:18:48.390Z,91.40
2022-08-03T22:21:27.727Z,91.50
2022-08-03T22:24:06.278Z,91.60
2022-08-03T22:26:36.394Z,91.60
2022-08-03T22:29:08.205Z,91.70
2022-08-03T22:31:57.415Z,91.80
2022-08-03T22:34:27.516Z,91.90
2022-08-03T22:37:02.349Z,91.90
2022-08-03T22:39:30.684Z,92.00
2022-08-03T22:41:59.510Z,92.00
2022-08-03T22:44:28.187Z,92.10
2022-08-03T22:46:56.995Z,92.20
2022-08-03T22:49:25.519Z,92.20
2022-08-03T22:51:54.372Z,92.30
2022-08-03T22:54:24.490Z,92.40
2022-08-03T22:56:53.045Z,92.50
2022-08-03T23:02:19.873Z,92.50
2022-08-03T23:04:52.296Z,92.60
2022-08-03T23:07:27.647Z,92.70
2022-08-03T23:09:57.913Z,92.80
2022-08-03T23:12:29.398Z,92.90
2022-08-03T23:15:03.019Z,92.90
2022-08-03T23:17:32.259Z,93.00
2022-08-03T23:20:03.220Z,93.00
2022-08-03T23:22:31.593Z,93.10
2022-08-03T23:25:03.737Z,93.10
2022-08-03T23:27:33.015Z,93.20
2022-08-03T23:30:02.516Z,93.20
2022-08-03T23:32:31.823Z,93.40
2022-08-03T23:35:19.350Z,93.50
2022-08-03T23:38:04.435Z,93.60
2022-08-03T23:40:38.495Z,93.70
2022-08-03T23:43:06.593Z,93.70
2022-08-03T23:45:37.156Z,93.80
2022-08-03T23:48:05.449Z,93.80
2022-08-03T23:50:41.580Z,93.80
2022-08-03T23:53:17.042Z,93.90
2022-08-03T23:56:01.425Z,93.90
2022-08-03T23:58:44.764Z,94.00
